Time;durP1;ratioP1;P1;durP2;ratioP2;P2;SDS_P1;SDS_P2;PMS_P1;PMS_P2;Temp;Humidity;BMP_temperature;BMP_pressure;BME280_temperature;BME280_humidity;BME280_pressure;Samples;Min_cycle;Max_cycle;Signal;HPM_P1;HPM_P2
2021/09/25 00:00:24;;;;;;;18.85;11.77;;;13.70;99.90;;;;;;5069543;28;20376;-55
2021/09/25 00:02:49;;;;;;;18.55;11.63;;;13.60;99.90;;;;;;5069572;28;20503;-55
2021/09/25 00:05:17;;;;;;;19.00;12.20;;;13.50;99.90;;;;;;5053587;28;20443;-55
2021/09/25 00:07:44;;;;;;;16.75;10.93;;;13.30;99.90;;;;;;5050419;28;20385;-55
2021/09/25 00:10:10;;;;;;;19.27;11.73;;;13.30;99.90;;;;;;5060918;28;20466;-55
2021/09/25 00:12:36;;;;;;;19.07;11.60;;;13.30;99.90;;;;;;5071609;28;20416;-55
2021/09/25 00:15:03;;;;;;;18.45;11.95;;;13.20;99.90;;;;;;5071070;28;20380;-55
2021/09/25 00:17:28;;;;;;;24.13;13.05;;;13.20;99.90;;;;;;5071267;28;20885;-55
2021/09/25 00:19:54;;;;;;;18.93;11.60;;;13.20;99.90;;;;;;5071590;28;20379;-55
2021/09/25 00:22:20;;;;;;;19.77;12.45;;;13.20;99.90;;;;;;5062888;28;21026;-55
2021/09/25 00:24:45;;;;;;;21.90;12.43;;;13.30;99.90;;;;;;5051267;28;20393;-55
2021/09/25 00:27:11;;;;;;;20.00;12.02;;;13.20;99.90;;;;;;5050831;28;20382;-55
2021/09/25 00:29:37;;;;;;;17.52;10.90;;;13.20;99.90;;;;;;5051253;28;20446;-55
2021/09/25 00:32:03;;;;;;;21.05;12.40;;;13.10;99.90;;;;;;5050790;28;20376;-55
2021/09/25 00:34:28;;;;;;;19.30;12.10;;;13.10;99.90;;;;;;5050706;28;20883;-55
2021/09/25 00:36:54;;;;;;;21.00;11.70;;;13.00;99.90;;;;;;5051406;28;20404;-55
2021/09/25 00:39:19;;;;;;;18.75;12.40;;;13.10;99.90;;;;;;5050485;28;20471;-55
2021/09/25 00:41:45;;;;;;;19.00;11.93;;;13.10;99.90;;;;;;5049788;28;20863;-55
2021/09/25 00:44:11;;;;;;;19.20;12.03;;;13.10;99.90;;;;;;5050396;28;20412;-55
2021/09/25 00:46:36;;;;;;;18.90;11.55;;;13.00;99.90;;;;;;5050788;28;20386;-55
2021/09/25 00:49:02;;;;;;;19.43;11.60;;;12.90;99.90;;;;;;5050420;28;20382;-56
2021/09/25 00:51:28;;;;;;;18.65;11.60;;;13.00;99.90;;;;;;5050731;28;20381;-55
2021/09/25 00:53:54;;;;;;;18.67;11.43;;;13.10;99.90;;;;;;5050766;28;20385;-55
2021/09/25 00:56:19;;;;;;;19.10;11.10;;;13.00;99.90;;;;;;5050301;28;20703;-55
2021/09/25 00:58:45;;;;;;;19.75;12.15;;;13.00;99.90;;;;;;5050944;28;20393;-55
2021/09/25 01:01:11;;;;;;;20.95;12.88;;;13.10;99.90;;;;;;5049938;28;20385;-55
2021/09/25 01:03:38;;;;;;;18.60;11.77;;;13.10;99.90;;;;;;5050325;28;20814;-55
2021/09/25 01:06:04;;;;;;;20.17;12.13;;;13.10;99.90;;;;;;5049927;28;20393;-56
2021/09/25 01:08:29;;;;;;;21.60;12.80;;;13.00;99.90;;;;;;5050571;28;20465;-55
2021/09/25 01:10:56;;;;;;;21.85;13.27;;;13.00;99.90;;;;;;5050472;28;20824;-56
2021/09/25 01:13:22;;;;;;;20.85;12.75;;;13.00;99.90;;;;;;5049787;28;20378;-55
2021/09/25 01:15:48;;;;;;;20.38;12.77;;;13.00;99.90;;;;;;5050701;28;20727;-55
2021/09/25 01:18:15;;;;;;;21.63;12.85;;;12.90;99.90;;;;;;5049431;28;20378;-55
2021/09/25 01:20:41;;;;;;;19.63;12.48;;;12.80;99.90;;;;;;5050472;28;20388;-55
2021/09/25 01:23:07;;;;;;;21.70;12.38;;;12.70;99.90;;;;;;5049231;28;20405;-55
2021/09/25 01:25:34;;;;;;;18.67;12.15;;;12.60;99.90;;;;;;5050047;28;20460;-55
2021/09/25 01:28:00;;;;;;;18.70;11.90;;;12.50;99.90;;;;;;5050459;28;20385;-55
2021/09/25 01:30:26;;;;;;;19.58;12.95;;;12.40;99.90;;;;;;5049690;28;20384;-55
2021/09/25 01:32:53;;;;;;;18.90;11.40;;;12.40;99.90;;;;;;5050141;28;20776;-55
2021/09/25 01:35:22;;;;;;;20.77;12.05;;;12.30;99.90;;;;;;5049284;28;20386;-55
2021/09/25 01:37:50;;;;;;;21.65;12.38;;;12.40;99.90;;;;;;5049828;28;20390;-55
2021/09/25 01:40:17;;;;;;;19.60;12.82;;;12.30;99.90;;;;;;5048796;28;20408;-55
2021/09/25 01:42:44;;;;;;;22.13;12.70;;;12.30;99.90;;;;;;5049479;28;20488;-55
2021/09/25 01:45:11;;;;;;;21.97;13.63;;;12.30;99.90;;;;;;5049109;28;20413;-55
2021/09/25 01:47:39;;;;;;;20.80;12.53;;;12.30;99.90;;;;;;5048796;28;20382;-55
2021/09/25 01:50:08;;;;;;;21.60;13.10;;;12.40;99.90;;;;;;5048901;28;20428;-55
2021/09/25 01:52:33;;;;;;;22.35;13.50;;;12.40;99.90;;;;;;5049711;28;20392;-55
2021/09/25 01:54:59;;;;;;;20.40;12.82;;;12.30;99.90;;;;;;5049339;28;20417;-55
2021/09/25 01:57:25;;;;;;;17.57;11.80;;;12.30;99.90;;;;;;5048913;28;20385;-55
2021/09/25 01:59:51;;;;;;;20.52;13.60;;;12.20;99.90;;;;;;5049682;28;20461;-55
2021/09/25 02:02:18;;;;;;;21.38;12.90;;;12.20;99.90;;;;;;5048370;28;20443;-55
2021/09/25 02:04:47;;;;;;;21.30;12.70;;;12.10;99.90;;;;;;5048324;28;20468;-54
2021/09/25 02:07:17;;;;;;;21.58;13.23;;;12.10;99.90;;;;;;5048733;28;20393;-54
2021/09/25 02:09:43;;;;;;;20.48;13.85;;;12.10;99.90;;;;;;5049751;28;20390;-54
2021/09/25 02:12:09;;;;;;;22.77;13.23;;;12.10;99.90;;;;;;5049050;28;20423;-54
2021/09/25 02:14:35;;;;;;;21.58;13.40;;;12.10;99.90;;;;;;5048413;28;20442;-54
2021/09/25 02:17:01;;;;;;;22.70;14.10;;;12.10;99.90;;;;;;5049335;28;20390;-54
2021/09/25 02:19:27;;;;;;;23.63;15.48;;;12.10;99.90;;;;;;5048626;28;20473;-54
2021/09/25 02:21:52;;;;;;;24.00;14.50;;;12.30;99.90;;;;;;5049584;28;20386;-54
2021/09/25 02:24:18;;;;;;;21.63;12.73;;;12.30;99.90;;;;;;5048110;28;21545;-54
2021/09/25 02:26:43;;;;;;;21.00;13.60;;;12.30;99.90;;;;;;5048819;28;20396;-54
2021/09/25 02:29:10;;;;;;;22.83;14.83;;;12.20;99.90;;;;;;5030345;28;20934;-54
2021/09/25 02:31:36;;;;;;;23.70;13.68;;;12.00;99.90;;;;;;5047805;28;20786;-54
2021/09/25 02:34:02;;;;;;;22.00;13.93;;;11.80;99.90;;;;;;5048792;28;20385;-54
2021/09/25 02:36:28;;;;;;;22.85;14.07;;;11.80;99.90;;;;;;5049139;28;20403;-54
2021/09/25 02:38:53;;;;;;;24.50;14.57;;;11.80;99.90;;;;;;5049123;28;20795;-54
2021/09/25 02:41:19;;;;;;;22.58;14.30;;;11.90;99.90;;;;;;5048268;28;20393;-54
2021/09/25 02:43:45;;;;;;;21.70;13.75;;;11.90;99.90;;;;;;5049144;28;20879;-54
2021/09/25 02:46:11;;;;;;;23.50;14.40;;;11.90;99.90;;;;;;5048246;28;20468;-54
2021/09/25 02:48:36;;;;;;;20.30;13.40;;;11.90;99.90;;;;;;5048796;28;20912;-54
2021/09/25 02:51:03;;;;;;;24.27;13.90;;;12.00;99.90;;;;;;5048620;28;20906;-54
2021/09/25 02:53:29;;;;;;;21.98;13.75;;;11.90;99.90;;;;;;5048494;28;20454;-54
2021/09/25 02:55:55;;;;;;;21.17;14.07;;;11.90;99.90;;;;;;5048949;28;20769;-54
2021/09/25 02:58:20;;;;;;;25.52;13.55;;;11.90;99.90;;;;;;5050332;28;20390;-54
2021/09/25 03:00:46;;;;;;;22.25;14.07;;;11.90;99.90;;;;;;5052874;28;20449;-54
2021/09/25 03:03:13;;;;;;;21.25;13.63;;;11.90;99.90;;;;;;5051944;28;20405;-54
2021/09/25 03:05:39;;;;;;;21.37;13.20;;;11.90;99.90;;;;;;5052698;28;20468;-54
2021/09/25 03:08:05;;;;;;;23.85;14.48;;;12.00;99.90;;;;;;5052184;28;20501;-54
2021/09/25 03:10:31;;;;;;;23.05;13.70;;;11.90;99.90;;;;;;5052589;28;20381;-54
2021/09/25 03:12:57;;;;;;;21.63;12.50;;;12.00;99.90;;;;;;5052925;28;20393;-54
2021/09/25 03:15:22;;;;;;;23.45;13.85;;;11.90;99.90;;;;;;5051873;28;20472;-54
2021/09/25 03:17:48;;;;;;;20.73;13.33;;;11.90;99.90;;;;;;5052717;28;20445;-54
2021/09/25 03:20:14;;;;;;;23.10;14.13;;;11.90;99.90;;;;;;5051603;28;20382;-54
2021/09/25 03:22:40;;;;;;;21.83;13.23;;;11.80;99.90;;;;;;5052457;28;20420;-54
2021/09/25 03:25:09;;;;;;;22.27;13.98;;;11.80;99.90;;;;;;5051792;28;20397;-54
2021/09/25 03:27:38;;;;;;;24.17;14.02;;;11.80;99.90;;;;;;5052511;28;20472;-54
2021/09/25 03:30:06;;;;;;;23.30;14.63;;;11.70;99.90;;;;;;5052018;28;20396;-54
2021/09/25 03:32:32;;;;;;;23.55;13.70;;;11.70;99.90;;;;;;5052390;28;20404;-54
2021/09/25 03:34:58;;;;;;;20.35;12.80;;;11.70;99.90;;;;;;5052500;28;20934;-53
2021/09/25 03:37:23;;;;;;;22.47;13.90;;;11.60;99.90;;;;;;5050421;28;20373;-54
2021/09/25 03:39:49;;;;;;;21.60;13.85;;;11.80;99.90;;;;;;5051979;28;20424;-54
2021/09/25 03:42:15;;;;;;;21.00;12.83;;;11.70;99.90;;;;;;5050283;28;20452;-53
2021/09/25 03:44:41;;;;;;;22.40;13.93;;;11.60;99.90;;;;;;5051979;28;20750;-54
2021/09/25 03:47:06;;;;;;;22.37;12.93;;;11.60;99.90;;;;;;5051551;28;20392;-56
2021/09/25 03:49:32;;;;;;;21.20;12.63;;;11.60;99.90;;;;;;5052342;28;20460;-53
2021/09/25 03:51:58;;;;;;;24.53;14.03;;;11.50;99.90;;;;;;5052131;28;20378;-53
2021/09/25 03:54:23;;;;;;;19.58;13.30;;;11.50;99.90;;;;;;5050753;28;20476;-53
2021/09/25 03:56:49;;;;;;;20.05;13.10;;;11.50;99.90;;;;;;5051707;28;20872;-54
2021/09/25 03:59:15;;;;;;;22.58;12.93;;;11.50;99.90;;;;;;5051109;28;20445;-54
2021/09/25 04:01:41;;;;;;;23.20;13.00;;;11.50;99.90;;;;;;5051508;28;20378;-57
2021/09/25 04:04:06;;;;;;;20.40;12.70;;;10.10;99.90;;;;;;5050883;28;20492;-56
2021/09/25 04:06:33;;;;;;;21.65;12.80;;;11.40;99.90;;;;;;5051776;28;20751;-56
2021/09/25 04:08:59;;;;;;;20.05;12.13;;;11.40;99.90;;;;;;5050982;28;20381;-56
2021/09/25 04:11:25;;;;;;;21.98;12.65;;;11.40;99.90;;;;;;5051078;28;21079;-56
2021/09/25 04:13:50;;;;;;;21.43;12.57;;;11.40;99.90;;;;;;5051462;28;20468;-54
2021/09/25 04:16:16;;;;;;;22.75;12.23;;;11.50;99.90;;;;;;5051031;28;20858;-53
2021/09/25 04:18:42;;;;;;;20.97;13.03;;;11.40;99.90;;;;;;5051326;28;20381;-54
2021/09/25 04:21:08;;;;;;;19.23;12.40;;;11.30;99.90;;;;;;5050866;28;20774;-55
2021/09/25 04:23:33;;;;;;;21.07;12.30;;;11.30;99.90;;;;;;5051615;28;20435;-55
2021/09/25 04:25:59;;;;;;;22.30;12.75;;;11.30;99.90;;;;;;5051230;28;20405;-54
2021/09/25 04:28:25;;;;;;;18.90;11.83;;;11.20;99.90;;;;;;5050820;28;20392;-54
2021/09/25 04:30:50;;;;;;;20.65;12.00;;;11.20;99.90;;;;;;5051315;28;20425;-54
2021/09/25 04:33:16;;;;;;;20.80;12.37;;;11.20;99.90;;;;;;5050485;28;20390;-54
2021/09/25 04:35:42;;;;;;;20.75;12.15;;;11.30;99.90;;;;;;5051291;28;20397;-54
2021/09/25 04:38:08;;;;;;;20.60;13.37;;;11.20;99.90;;;;;;5050803;28;20381;-54
2021/09/25 04:40:34;;;;;;;19.92;11.90;;;11.30;99.90;;;;;;5051054;28;20887;-54
2021/09/25 04:43:02;;;;;;;23.08;12.43;;;11.20;99.90;;;;;;5050757;28;20891;-54
2021/09/25 04:45:28;;;;;;;20.83;12.60;;;11.10;99.90;;;;;;5049177;28;20393;-54
2021/09/25 04:47:54;;;;;;;20.35;13.10;;;11.20;99.90;;;;;;5051160;28;20728;-54
2021/09/25 04:50:20;;;;;;;21.23;12.80;;;11.10;99.90;;;;;;5050292;28;20439;-54
2021/09/25 04:52:46;;;;;;;20.53;12.30;;;11.20;99.90;;;;;;5051121;28;20390;-54
2021/09/25 04:55:12;;;;;;;20.47;14.47;;;11.20;99.90;;;;;;5049768;28;20405;-54
2021/09/25 04:57:38;;;;;;;21.10;13.07;;;11.20;99.90;;;;;;5050471;28;20492;-55
2021/09/25 05:00:06;;;;;;;20.35;12.13;;;11.20;99.90;;;;;;5050826;28;20385;-54
2021/09/25 05:02:31;;;;;;;19.67;11.55;;;11.00;99.90;;;;;;5050360;28;20416;-54
2021/09/25 05:04:57;;;;;;;23.15;13.88;;;11.10;99.90;;;;;;5051044;28;20390;-54
2021/09/25 05:07:23;;;;;;;18.63;11.40;;;11.00;99.90;;;;;;5050028;28;20466;-54
2021/09/25 05:09:48;;;;;;;18.75;11.88;;;11.00;99.90;;;;;;5050394;28;20370;-54
2021/09/25 05:12:14;;;;;;;22.57;12.67;;;10.90;99.90;;;;;;5049929;28;20431;-54
2021/09/25 05:14:40;;;;;;;20.33;12.95;;;10.80;99.90;;;;;;5050509;28;20739;-54
2021/09/25 05:17:07;;;;;;;22.70;13.00;;;10.80;99.90;;;;;;5050273;28;20381;-54
2021/09/25 05:19:33;;;;;;;20.63;13.13;;;10.80;99.90;;;;;;5050227;28;20477;-55
2021/09/25 05:22:00;;;;;;;22.02;12.70;;;10.80;99.90;;;;;;5050455;28;20374;-55
2021/09/25 05:24:25;;;;;;;19.98;11.73;;;11.00;99.90;;;;;;5049168;28;20433;-55
2021/09/25 05:26:51;;;;;;;19.98;12.48;;;11.00;99.90;;;;;;5050456;28;20407;-55
2021/09/25 05:29:17;;;;;;;18.95;11.35;;;10.90;99.90;;;;;;5049641;28;20393;-55
2021/09/25 05:31:44;;;;;;;19.63;11.65;;;11.00;99.90;;;;;;5049994;28;20725;-55
2021/09/25 05:34:09;;;;;;;23.20;12.13;;;11.00;99.90;;;;;;5049569;28;20413;-55
2021/09/25 05:36:35;;;;;;;21.02;12.35;;;11.10;99.90;;;;;;5048744;28;20433;-55
2021/09/25 05:39:03;;;;;;;18.97;11.57;;;11.30;99.90;;;;;;5049695;28;20403;-55
2021/09/25 05:41:29;;;;;;;18.98;11.25;;;11.30;99.90;;;;;;5048896;28;20616;-55
2021/09/25 05:43:55;;;;;;;21.42;11.80;;;11.30;99.90;;;;;;5049882;28;20883;-55
2021/09/25 05:46:21;;;;;;;18.20;11.40;;;11.20;99.90;;;;;;5048978;28;20389;-55
2021/09/25 05:48:48;;;;;;;18.10;10.90;;;11.10;99.90;;;;;;5052799;28;20530;-58
2021/09/25 05:51:14;;;;;;;17.85;10.98;;;11.20;99.90;;;;;;5068926;28;20473;-55
2021/09/25 05:53:40;;;;;;;18.17;10.70;;;11.30;99.90;;;;;;5069053;28;20387;-55
2021/09/25 05:56:06;;;;;;;21.00;11.77;;;11.40;99.90;;;;;;5069134;28;20865;-55
2021/09/25 05:58:32;;;;;;;17.47;10.30;;;11.50;99.90;;;;;;5068990;28;20394;-55
2021/09/25 06:00:58;;;;;;;15.73;9.87;;;11.80;99.90;;;;;;5068815;28;20445;-55
2021/09/25 06:03:24;;;;;;;17.33;9.70;;;12.50;99.90;;;;;;5068008;28;20765;-55
2021/09/25 06:05:49;;;;;;;18.03;9.30;;;13.80;99.90;;;;;;5069419;28;20455;-56
2021/09/25 06:08:15;;;;;;;14.97;9.23;;;15.10;99.90;;;;;;5068409;28;20407;-56
2021/09/25 06:10:42;;;;;;;14.43;9.57;;;16.30;99.90;;;;;;5069168;28;20395;-54
2021/09/25 06:13:10;;;;;;;13.70;8.50;;;17.70;99.90;;;;;;5068313;28;20395;-54
2021/09/25 06:15:36;;;;;;;14.20;8.50;;;18.60;99.90;;;;;;5068599;28;20379;-54
2021/09/25 06:18:03;;;;;;;13.20;8.27;;;19.30;99.90;;;;;;5068987;28;20380;-56
2021/09/25 06:20:29;;;;;;;13.90;9.13;;;20.30;99.90;;;;;;5066346;28;20475;-56
2021/09/25 06:22:55;;;;;;;17.52;9.10;;;20.90;99.90;;;;;;5068593;28;20482;-56
2021/09/25 06:25:21;;;;;;;13.20;9.02;;;21.10;99.90;;;;;;5066920;28;20765;-57
2021/09/25 06:27:46;;;;;;;14.40;8.98;;;20.70;99.90;;;;;;5068526;28;20376;-56
2021/09/25 06:30:12;;;;;;;14.30;8.93;;;21.10;99.90;;;;;;5067480;28;20454;-58
2021/09/25 06:32:38;;;;;;;15.30;9.38;;;21.60;99.90;;;;;;5069082;28;20420;-57
2021/09/25 06:35:05;;;;;;;13.30;8.80;;;21.90;99.90;;;;;;5071928;28;20368;-55
2021/09/25 06:37:31;;;;;;;13.13;9.30;;;22.60;99.90;;;;;;5071155;28;20391;-54
2021/09/25 06:39:57;;;;;;;13.90;9.60;;;23.20;99.90;;;;;;5070717;28;20531;-54
2021/09/25 06:42:22;;;;;;;14.93;10.57;;;23.50;99.50;;;;;;5067739;28;20415;-55
2021/09/25 06:44:48;;;;;;;16.27;11.57;;;23.70;99.00;;;;;;5065546;28;20399;-54
2021/09/25 06:47:14;;;;;;;16.57;12.40;;;23.80;97.90;;;;;;5070625;28;20390;-55
2021/09/25 06:49:40;;;;;;;15.70;11.83;;;23.20;97.90;;;;;;5072505;28;20402;-54
2021/09/25 06:52:06;;;;;;;13.77;11.40;;;23.30;97.30;;;;;;5072131;28;20437;-54
2021/09/25 06:54:34;;;;;;;15.50;10.77;;;22.90;97.50;;;;;;5057493;28;20486;-55
2021/09/25 06:57:01;;;;;;;15.47;11.80;;;23.00;98.40;;;;;;5060486;28;20416;-56
2021/09/25 06:59:27;;;;;;;17.63;11.52;;;23.40;97.60;;;;;;5053893;28;20416;-56
2021/09/25 07:01:52;;;;;;;15.97;11.90;;;23.80;97.30;;;;;;5055196;28;20399;-55
2021/09/25 07:04:18;;;;;;;14.70;12.07;;;23.90;96.50;;;;;;5051525;28;20898;-55
2021/09/25 07:06:43;;;;;;;16.80;11.00;;;23.90;95.90;;;;;;5051321;28;21201;-56
2021/09/25 07:09:09;;;;;;;14.80;10.90;;;23.60;97.00;;;;;;5058955;28;20395;-56
2021/09/25 07:11:36;;;;;;;13.52;10.75;;;25.30;96.20;;;;;;5059156;28;20432;-58
2021/09/25 07:14:02;;;;;;;16.50;12.10;;;24.40;95.20;;;;;;5052667;28;20407;-56
2021/09/25 07:16:28;;;;;;;14.70;11.88;;;24.70;94.40;;;;;;5052463;28;20479;-56
2021/09/25 07:18:54;;;;;;;14.30;11.50;;;25.40;92.90;;;;;;5052050;28;20504;-56
2021/09/25 07:21:20;;;;;;;14.00;11.73;;;25.20;92.80;;;;;;5050203;28;20437;-57
2021/09/25 07:23:45;;;;;;;16.08;13.02;;;25.50;92.40;;;;;;5051205;28;20413;-56
2021/09/25 07:26:11;;;;;;;16.42;12.63;;;25.60;91.80;;;;;;5051143;28;20408;-57
2021/09/25 07:28:37;;;;;;;15.55;13.52;;;25.20;92.50;;;;;;5051131;28;20405;-56
2021/09/25 07:31:03;;;;;;;15.73;12.75;;;25.40;92.20;;;;;;5050958;28;20751;-57
2021/09/25 07:33:29;;;;;;;12.60;9.02;;;26.30;90.40;;;;;;5051122;28;20573;-57
2021/09/25 07:35:55;;;;;;;14.85;9.23;;;27.10;88.80;;;;;;5053157;28;20385;-57
2021/09/25 07:38:21;;;;;;;15.40;9.82;;;28.20;83.00;;;;;;5052314;28;20469;-57
2021/09/25 07:40:47;;;;;;;12.73;8.30;;;28.80;77.90;;;;;;5053436;28;20810;-57
2021/09/25 07:43:13;;;;;;;12.50;8.87;;;28.10;78.80;;;;;;5052498;28;20935;-57
2021/09/25 07:45:38;;;;;;;14.40;8.30;;;27.50;79.90;;;;;;5058219;28;20885;-57
2021/09/25 07:48:04;;;;;;;12.97;9.20;;;27.70;78.30;;;;;;5065727;28;21322;-57
2021/09/25 07:50:30;;;;;;;13.90;8.67;;;28.20;77.70;;;;;;5054990;28;21072;-57
2021/09/25 07:52:57;;;;;;;12.68;7.93;;;28.90;73.80;;;;;;5051760;28;20385;-58
2021/09/25 07:55:24;;;;;;;14.35;8.38;;;28.90;73.30;;;;;;5050303;28;20547;-56
2021/09/25 07:57:50;;;;;;;13.60;8.32;;;28.70;73.00;;;;;;5054209;28;20482;-57
2021/09/25 08:00:16;;;;;;;11.67;7.90;;;29.00;72.20;;;;;;5052922;28;20408;-57
2021/09/25 08:02:43;;;;;;;13.82;8.60;;;29.80;70.00;;;;;;5063828;28;20403;-57
2021/09/25 08:05:10;;;;;;;12.57;8.40;;;29.20;71.00;;;;;;5063351;28;20405;-57
2021/09/25 08:07:36;;;;;;;11.55;7.70;;;28.90;71.50;;;;;;5061729;28;20395;-57
2021/09/25 08:10:03;;;;;;;14.45;12.95;;;27.80;72.50;;;;;;5064108;28;20404;-57
2021/09/25 08:12:29;;;;;;;11.32;7.78;;;27.90;74.00;;;;;;5054288;28;20410;-57
2021/09/25 08:14:55;;;;;;;11.00;7.07;;;28.60;71.90;;;;;;5056033;28;20390;-57
2021/09/25 08:17:20;;;;;;;13.10;7.40;;;29.60;68.20;;;;;;5051328;28;20385;-57
2021/09/25 08:19:46;;;;;;;14.30;11.27;;;30.30;65.90;;;;;;5053199;28;20392;-57
2021/09/25 08:22:12;;;;;;;12.63;11.30;;;31.20;62.00;;;;;;5056231;28;20401;-57
2021/09/25 08:24:38;;;;;;;12.43;10.70;;;32.40;62.50;;;;;;5050600;28;20407;-57
2021/09/25 08:27:03;;;;;;;15.20;13.60;;;30.50;61.00;;;;;;5049134;28;20470;-57
2021/09/25 08:29:29;;;;;;;11.53;10.33;;;30.20;61.70;;;;;;5050647;28;20413;-57
2021/09/25 08:31:55;;;;;;;12.60;10.50;;;30.80;61.20;;;;;;5050645;28;20411;-57
2021/09/25 08:34:20;;;;;;;12.40;11.10;;;30.20;62.50;;;;;;5050318;28;20458;-57
2021/09/25 08:36:46;;;;;;;12.05;10.20;;;30.30;62.50;;;;;;5056039;28;20398;-55
2021/09/25 08:39:13;;;;;;;13.23;10.75;;;30.30;61.40;;;;;;5054513;28;20440;-55
2021/09/25 08:41:40;;;;;;;13.90;10.90;;;30.70;60.70;;;;;;5053507;28;20395;-54
2021/09/25 08:44:06;;;;;;;14.15;11.75;;;31.10;59.70;;;;;;5053829;28;20458;-55
2021/09/25 08:46:33;;;;;;;13.23;10.90;;;31.80;58.70;;;;;;5051115;28;20391;-57
2021/09/25 08:49:00;;;;;;;13.13;7.90;;;33.10;57.30;;;;;;5062572;28;20402;-57
2021/09/25 08:51:26;;;;;;;11.65;8.05;;;32.70;56.80;;;;;;5063712;28;20417;-57
2021/09/25 08:53:51;;;;;;;12.40;8.00;;;33.30;55.00;;;;;;5057747;28;20630;-56
2021/09/25 08:56:17;;;;;;;12.10;8.20;;;33.90;54.20;;;;;;5056706;28;20494;-57
2021/09/25 08:58:45;;;;;;;13.02;7.07;;;33.30;54.20;;;;;;5054145;28;20505;-56
2021/09/25 09:01:20;;;;;;;11.80;9.30;;;34.20;53.10;;;;;;5060937;28;20404;-57
2021/09/25 09:03:48;;;;;;;13.27;7.80;;;35.00;51.70;;;;;;5061280;28;20893;-57
2021/09/25 09:06:16;;;;;;;12.15;7.13;;;34.80;51.70;;;;;;5061995;28;20388;-57
2021/09/25 09:08:45;;;;;;;10.53;6.60;;;35.50;51.20;;;;;;5051225;28;20946;-57
2021/09/25 09:11:12;;;;;;;11.15;6.88;;;35.30;49.50;;;;;;5049300;28;20409;-57
2021/09/25 09:13:40;;;;;;;10.95;6.72;;;35.40;49.00;;;;;;5064474;28;20495;-57
2021/09/25 09:16:08;;;;;;;11.35;8.82;;;35.00;49.00;;;;;;5059802;28;20413;-57
2021/09/25 09:18:39;;;;;;;11.23;9.20;;;35.40;48.50;;;;;;5048740;28;20561;-56
2021/09/25 09:21:11;;;;;;;10.15;9.00;;;35.50;48.20;;;;;;5049185;28;20397;-57
2021/09/25 09:23:51;;;;;;;10.98;9.77;;;35.80;47.60;;;;;;5049854;28;20409;-57
2021/09/25 09:26:19;;;;;;;11.57;8.25;;;35.00;47.90;;;;;;5051288;28;20938;-57
2021/09/25 09:28:47;;;;;;;10.23;7.53;;;34.90;48.60;;;;;;5053001;28;20461;-56
2021/09/25 09:31:14;;;;;;;13.85;8.20;;;35.10;48.40;;;;;;5051725;28;20454;-57
2021/09/25 09:33:45;;;;;;;10.43;7.53;;;35.20;47.40;;;;;;5048832;28;20742;-58
2021/09/25 09:36:11;;;;;;;9.15;6.85;;;35.30;47.50;;;;;;5048444;28;20471;-57
2021/09/25 09:38:53;;;;;;;10.60;7.50;;;34.90;47.40;;;;;;5049649;28;20416;-56
2021/09/25 09:41:32;;;;;;;9.40;5.30;;;34.50;48.20;;;;;;5050287;28;20433;-57
2021/09/25 09:44:05;;;;;;;8.20;5.30;;;34.30;47.20;;;;;;5049446;28;20401;-57
2021/09/25 09:46:34;;;;;;;9.73;5.88;;;34.30;47.90;;;;;;5049562;28;20734;-57
2021/09/25 09:49:00;;;;;;;8.30;4.50;;;34.40;46.90;;;;;;5054319;28;20398;-58
2021/09/25 09:51:47;;;;;;;10.73;8.17;;;34.40;46.20;;;;;;5055124;28;20409;-57
2021/09/25 09:54:26;;;;;;;9.00;8.10;;;33.80;45.90;;;;;;5048762;28;20525;-57
2021/09/25 09:56:54;;;;;;;13.07;8.77;;;33.70;46.80;;;;;;5052526;28;20417;-57
2021/09/25 09:59:20;;;;;;;10.07;9.07;;;33.90;46.90;;;;;;5052791;28;20412;-58
2021/09/25 10:01:46;;;;;;;11.00;9.90;;;33.80;47.70;;;;;;5051388;28;20400;-58
2021/09/25 10:04:14;;;;;;;9.90;8.90;;;34.40;47.40;;;;;;5051772;28;20429;-58
2021/09/25 10:06:40;;;;;;;12.18;9.02;;;34.50;47.00;;;;;;5060803;28;20433;-57
2021/09/25 10:09:08;;;;;;;9.93;8.77;;;34.80;46.60;;;;;;5049156;28;20798;-58
2021/09/25 10:11:36;;;;;;;8.57;6.85;;;35.20;45.40;;;;;;5048694;28;20396;-57
2021/09/25 10:14:04;;;;;;;9.55;5.25;;;35.30;45.90;;;;;;5049818;28;20481;-58
2021/09/25 10:16:30;;;;;;;8.50;5.10;;;35.00;45.90;;;;;;5046872;28;20906;-57
2021/09/25 10:18:56;;;;;;;10.40;5.53;;;35.00;46.60;;;;;;5050225;28;20412;-57
2021/09/25 10:21:24;;;;;;;9.00;5.60;;;34.90;46.10;;;;;;5049091;28;20728;-57
2021/09/25 10:23:58;;;;;;;8.57;5.75;;;35.00;46.40;;;;;;5050600;28;20401;-57
2021/09/25 10:26:25;;;;;;;9.70;5.50;;;35.40;44.50;;;;;;5045683;28;20425;-58
2021/09/25 10:28:59;;;;;;;9.40;6.85;;;34.70;45.80;;;;;;5050731;28;20390;-57
2021/09/25 10:31:25;;;;;;;8.77;5.60;;;34.50;46.20;;;;;;5061223;28;20481;-57
2021/09/25 10:34:18;;;;;;;10.77;8.83;;;34.30;46.60;;;;;;5053287;28;20825;-58
2021/09/25 10:36:50;;;;;;;9.95;8.32;;;34.00;46.20;;;;;;5048891;28;20389;-57
2021/09/25 10:39:34;;;;;;;10.35;8.30;;;34.20;47.30;;;;;;5047669;28;20405;-58
2021/09/25 10:42:11;;;;;;;10.80;9.70;;;34.50;47.40;;;;;;5051322;28;20409;-58
2021/09/25 10:44:50;;;;;;;8.60;5.40;;;34.50;46.00;;;;;;5055759;28;20413;-58
2021/09/25 10:47:18;;;;;;;10.50;5.50;;;34.50;46.20;;;;;;5047855;28;20413;-57
2021/09/25 10:49:52;;;;;;;9.57;5.28;;;34.00;47.10;;;;;;5050441;28;20405;-57
2021/09/25 10:52:25;;;;;;;8.93;5.50;;;34.10;47.80;;;;;;5048354;28;20412;-57
2021/09/25 10:55:23;;;;;;;8.70;5.80;;;34.40;47.10;;;;;;5078500;28;20500;-57
2021/09/25 10:58:23;;;;;;;10.43;6.53;;;34.20;47.00;;;;;;5046982;28;20409;-58
2021/09/25 11:00:52;;;;;;;9.40;5.78;;;34.50;46.40;;;;;;5048037;28;20482;-57
2021/09/25 11:06:30;;;;;;;8.52;5.50;;;35.40;46.00;;;;;;5046337;28;20936;-58
2021/09/25 11:09:17;;;;;;;9.23;6.30;;;35.00;45.80;;;;;;5047797;28;20409;-57
2021/09/25 11:11:46;;;;;;;13.20;10.32;;;34.50;45.80;;;;;;5046096;28;20727;-57
2021/09/25 11:14:38;;;;;;;10.30;6.80;;;34.20;46.50;;;;;;5047873;28;20454;-58
2021/09/25 11:17:14;;;;;;;11.40;9.47;;;33.80;47.30;;;;;;5048792;28;20404;-58
2021/09/25 11:19:52;;;;;;;12.60;8.00;;;33.10;48.30;;;;;;5049434;28;20393;-56
2021/09/25 11:22:26;;;;;;;10.20;8.23;;;32.40;48.90;;;;;;5053191;28;20835;-55
2021/09/25 11:25:00;;;;;;;11.05;8.55;;;31.70;51.40;;;;;;5051943;28;20958;-53
2021/09/25 11:27:31;;;;;;;10.77;8.63;;;30.90;52.00;;;;;;5051571;28;20413;-54
2021/09/25 11:30:02;;;;;;;10.60;9.45;;;30.60;52.00;;;;;;5050476;28;20401;-53
2021/09/25 11:32:37;;;;;;;10.57;9.48;;;30.00;53.10;;;;;;5051156;28;21393;-55
2021/09/25 11:35:12;;;;;;;11.13;9.90;;;29.60;53.90;;;;;;5055373;28;20405;-54
2021/09/25 11:37:59;;;;;;;11.00;9.30;;;28.00;53.50;;;;;;5049715;28;20394;-54
2021/09/25 11:40:35;;;;;;;12.02;9.70;;;29.00;55.80;;;;;;5052675;28;20895;-54
2021/09/25 11:43:05;;;;;;;9.98;8.90;;;30.30;56.90;;;;;;5062516;28;20880;-54
2021/09/25 11:45:36;;;;;;;12.63;8.53;;;29.10;56.10;;;;;;5054512;28;20441;-56
2021/09/25 11:48:03;;;;;;;12.80;9.20;;;28.90;55.90;;;;;;5051583;28;20405;-53
2021/09/25 11:50:36;;;;;;;10.00;8.60;;;28.90;56.30;;;;;;5050307;28;20492;-55
2021/09/25 11:53:06;;;;;;;10.05;8.70;;;29.10;56.60;;;;;;5064568;28;20486;-54
2021/09/25 11:55:33;;;;;;;17.20;9.13;;;29.40;55.90;;;;;;5061156;28;20409;-54
2021/09/25 11:58:02;;;;;;;9.50;8.50;;;29.40;55.40;;;;;;5058644;28;20474;-54
2021/09/25 12:00:35;;;;;;;10.02;8.52;;;29.20;56.50;;;;;;5067592;28;20417;-54
2021/09/25 12:03:03;;;;;;;11.15;8.55;;;29.00;57.20;;;;;;5065520;28;20412;-54
2021/09/25 12:05:38;;;;;;;10.10;8.43;;;29.20;56.70;;;;;;5065470;28;20873;-54
2021/09/25 12:08:17;;;;;;;9.75;8.15;;;29.00;57.10;;;;;;5065329;28;20395;-54
2021/09/25 12:10:53;;;;;;;9.73;8.32;;;29.00;57.20;;;;;;5063815;28;20393;-53
2021/09/25 12:13:26;;;;;;;11.40;9.27;;;29.10;57.20;;;;;;5060846;28;20440;-54
2021/09/25 12:15:54;;;;;;;9.80;8.80;;;29.00;57.40;;;;;;5053540;28;20381;-54
2021/09/25 12:18:26;;;;;;;10.05;8.85;;;28.90;57.30;;;;;;5060632;28;20536;-55
2021/09/25 12:20:55;;;;;;;11.40;9.20;;;29.10;57.60;;;;;;5060302;28;20484;-54
2021/09/25 12:23:42;;;;;;;9.43;8.35;;;28.80;57.10;;;;;;5065978;28;20710;-54
2021/09/25 12:26:17;;;;;;;11.57;9.05;;;28.30;59.50;;;;;;5065062;28;20498;-54
2021/09/25 12:28:54;;;;;;;10.98;9.68;;;28.20;59.20;;;;;;5064538;28;20427;-54
2021/09/25 12:31:26;;;;;;;9.70;8.05;;;28.60;58.80;;;;;;5068107;28;20376;-55
2021/09/25 12:33:59;;;;;;;10.37;9.27;;;28.80;57.90;;;;;;5058903;28;20403;-54
2021/09/25 12:36:36;;;;;;;10.13;8.95;;;29.10;57.90;;;;;;5066336;28;20424;-55